createdAt,value
2024-04-06T00:00:07.739Z,973.77
2024-04-06T00:01:07.740Z,973.78
2024-04-06T00:02:07.725Z,973.81
2024-04-06T00:03:07.709Z,973.82
2024-04-06T00:04:07.695Z,973.85
2024-04-06T00:05:07.689Z,973.88
2024-04-06T00:06:07.675Z,973.86
2024-04-06T00:07:07.665Z,973.87
2024-04-06T00:08:13.372Z,973.85
2024-04-06T00:09:07.644Z,973.85
2024-04-06T00:10:07.642Z,973.86
2024-04-06T00:11:07.627Z,973.90
2024-04-06T00:12:07.612Z,973.87
2024-04-06T00:13:07.602Z,973.88
2024-04-06T00:14:07.587Z,973.88
2024-04-06T00:15:07.580Z,973.89
2024-04-06T00:16:07.564Z,973.86
2024-04-06T00:17:07.570Z,973.89
2024-04-06T00:18:07.543Z,973.86
2024-04-06T00:19:07.548Z,973.86
2024-04-06T00:20:07.527Z,973.88
2024-04-06T00:21:07.513Z,973.86
2024-04-06T00:22:07.501Z,973.85
2024-04-06T00:23:07.493Z,973.90
2024-04-06T00:24:07.478Z,973.87
2024-04-06T00:25:07.671Z,973.86
2024-04-06T00:26:07.455Z,973.81
2024-04-06T00:27:07.449Z,973.84
2024-04-06T00:28:07.447Z,973.83
2024-04-06T00:29:07.426Z,973.84
2024-04-06T00:30:07.418Z,973.86
2024-04-06T00:31:07.401Z,973.83
2024-04-06T00:32:07.395Z,973.83
2024-04-06T00:33:07.395Z,973.84
2024-04-06T00:34:07.371Z,973.81
2024-04-06T00:35:07.362Z,973.82
2024-04-06T00:36:07.346Z,973.83
2024-04-06T00:37:07.341Z,973.79
2024-04-06T00:38:07.327Z,973.80
2024-04-06T00:39:07.325Z,973.78
2024-04-06T00:40:07.304Z,973.82
2024-04-06T00:41:07.497Z,973.83
2024-04-06T00:42:07.286Z,973.80
2024-04-06T00:43:07.283Z,973.80
2024-04-06T00:44:07.259Z,973.79
2024-04-06T00:45:07.250Z,973.75
2024-04-06T00:46:07.241Z,973.78
2024-04-06T00:47:07.227Z,973.81
2024-04-06T00:48:07.420Z,973.74
2024-04-06T00:49:07.222Z,973.72
2024-04-06T00:50:07.195Z,973.70
2024-04-06T00:51:07.182Z,973.72
2024-04-06T00:52:07.171Z,973.76
2024-04-06T00:53:07.162Z,973.80
2024-04-06T00:54:07.160Z,973.83
2024-04-06T00:55:07.145Z,973.83
2024-04-06T00:56:07.132Z,973.85
2024-04-06T00:57:07.119Z,973.87
2024-04-06T00:58:07.106Z,973.83
2024-04-06T00:59:07.094Z,973.85
2024-04-06T01:00:07.095Z,973.87
2024-04-06T01:01:07.071Z,973.85
2024-04-06T01:02:07.060Z,973.87
2024-04-06T01:03:07.052Z,973.85
2024-04-06T01:04:07.039Z,973.82
2024-04-06T01:05:07.037Z,973.82
2024-04-06T01:06:07.016Z,973.84
2024-04-06T01:07:07.011Z,973.83
2024-04-06T01:08:06.994Z,973.85
2024-04-06T01:09:06.981Z,973.84
2024-04-06T01:10:06.975Z,973.85
2024-04-06T01:11:06.992Z,973.87
2024-04-06T01:12:06.948Z,973.83
2024-04-06T01:13:06.935Z,973.84
2024-04-06T01:14:06.925Z,973.85
2024-04-06T01:15:06.918Z,973.88
2024-04-06T01:16:06.904Z,973.87
2024-04-06T01:17:06.891Z,973.88
2024-04-06T01:18:06.883Z,973.89
2024-04-06T01:19:06.868Z,973.91
2024-04-06T01:20:06.858Z,973.87
2024-04-06T01:21:06.854Z,973.91
2024-04-06T01:22:06.837Z,973.90
2024-04-06T01:23:06.831Z,973.96
2024-04-06T01:24:06.824Z,973.91
2024-04-06T01:25:06.800Z,973.94
2024-04-06T01:26:06.791Z,973.95
2024-04-06T01:27:06.778Z,973.95
2024-04-06T01:28:06.769Z,973.91
2024-04-06T01:29:06.757Z,973.90
2024-04-06T01:30:06.746Z,973.97
2024-04-06T01:31:06.733Z,973.94
2024-04-06T01:32:06.722Z,973.95
2024-04-06T01:33:06.711Z,973.92
2024-04-06T01:34:06.701Z,973.94
2024-04-06T01:35:06.693Z,973.98
2024-04-06T01:36:06.682Z,974.04
2024-04-06T01:37:06.680Z,974.00
2024-04-06T01:38:06.660Z,974.02
2024-04-06T01:39:06.643Z,974.05
2024-04-06T01:40:06.645Z,974.04
2024-04-06T01:41:06.623Z,974.07
2024-04-06T01:42:06.610Z,974.05
2024-04-06T01:43:06.650Z,973.99
2024-04-06T01:44:06.590Z,974.03
2024-04-06T01:45:06.588Z,974.05
2024-04-06T01:46:06.567Z,974.04
2024-04-06T01:47:06.554Z,974.02
2024-04-06T01:48:06.597Z,974.01
2024-04-06T01:49:06.539Z,974.03
2024-04-06T01:50:06.526Z,974.02
2024-04-06T01:51:06.510Z,974.04
2024-04-06T01:52:06.499Z,974.00
2024-04-06T01:53:06.511Z,974.05
2024-04-06T01:54:06.479Z,974.08
2024-04-06T01:55:06.469Z,974.05
2024-04-06T01:56:06.455Z,974.03
2024-04-06T01:57:06.445Z,974.03
2024-04-06T01:58:06.434Z,974.02
2024-04-06T01:59:06.420Z,974.02
2024-04-06T02:00:06.428Z,974.02
2024-04-06T02:01:06.398Z,974.03
2024-04-06T02:02:06.392Z,974.05
2024-04-06T02:03:06.375Z,974.02
2024-04-06T02:04:06.364Z,974.05
2024-04-06T02:05:06.353Z,974.05
2024-04-06T02:06:06.343Z,974.01
2024-04-06T02:07:06.333Z,974.05
2024-04-06T02:08:06.320Z,974.07
2024-04-06T02:09:06.327Z,974.06
2024-04-06T02:10:06.296Z,974.11
2024-04-06T02:11:06.288Z,974.12
2024-04-06T02:12:06.279Z,974.09
2024-04-06T02:13:06.261Z,974.11
2024-04-06T02:14:06.252Z,974.10
2024-04-06T02:15:06.245Z,974.08
2024-04-06T02:16:06.231Z,974.08
2024-04-06T02:17:06.224Z,974.12
2024-04-06T02:18:06.214Z,974.08
2024-04-06T02:19:06.194Z,974.13
2024-04-06T02:20:06.185Z,974.12
2024-04-06T02:21:06.173Z,974.13
2024-04-06T02:22:06.168Z,974.14
2024-04-06T02:23:06.148Z,974.11
2024-04-06T02:24:06.140Z,974.12
2024-04-06T02:25:06.265Z,974.13
2024-04-06T02:26:06.119Z,974.16
2024-04-06T02:27:06.103Z,974.16
2024-04-06T02:28:06.093Z,974.10
2024-04-06T02:29:06.089Z,974.13
2024-04-06T02:31:06.070Z,974.13
2024-04-06T02:32:06.046Z,974.18
2024-04-06T02:33:06.042Z,974.18
2024-04-06T02:34:06.023Z,974.19
2024-04-06T02:35:06.014Z,974.18
2024-04-06T02:36:06.000Z,974.19
2024-04-06T02:37:06.007Z,974.15
2024-04-06T02:38:05.978Z,974.17
2024-04-06T02:39:05.968Z,974.13
2024-04-06T02:40:05.961Z,974.10
2024-04-06T02:41:05.955Z,974.11
2024-04-06T02:42:05.934Z,974.03
2024-04-06T02:43:05.924Z,973.98
2024-04-06T02:44:05.910Z,973.99
2024-04-06T02:45:05.901Z,974.01
2024-04-06T02:46:05.885Z,974.03
2024-04-06T02:47:05.935Z,974.06
2024-04-06T02:48:05.862Z,974.08
2024-04-06T02:49:05.861Z,974.01
2024-04-06T02:50:05.842Z,974.03
2024-04-06T02:51:05.832Z,974.04
2024-04-06T02:52:05.816Z,974.09
2024-04-06T02:53:05.805Z,974.04
2024-04-06T02:54:05.788Z,974.05
2024-04-06T02:55:05.783Z,974.04
2024-04-06T02:56:05.768Z,974.03
2024-04-06T02:57:05.776Z,974.07
2024-04-06T02:58:05.748Z,974.07
2024-04-06T02:59:05.739Z,974.16
2024-04-06T03:00:05.726Z,974.18
2024-04-06T03:01:05.711Z,974.20
2024-04-06T03:02:05.705Z,974.20
2024-04-06T03:03:05.697Z,974.20
2024-04-06T03:04:05.672Z,974.20
2024-04-06T03:05:05.681Z,974.18
2024-04-06T03:06:05.658Z,974.22
2024-04-06T03:07:05.661Z,974.20
2024-04-06T03:08:05.628Z,974.18
2024-04-06T03:09:05.615Z,974.19
2024-04-06T03:10:05.604Z,974.21
2024-04-06T03:11:05.595Z,974.21
2024-04-06T03:12:05.580Z,974.18
2024-04-06T03:13:05.580Z,974.22
2024-04-06T03:14:05.555Z,974.19
2024-04-06T03:15:05.562Z,974.23
2024-04-06T03:16:05.538Z,974.21
2024-04-06T03:17:05.523Z,974.24
2024-04-06T03:18:05.515Z,974.27
2024-04-06T03:19:05.498Z,974.24
2024-04-06T03:20:05.486Z,974.22
2024-04-06T03:21:05.476Z,974.25
2024-04-06T03:22:05.461Z,974.31
2024-04-06T03:23:05.466Z,974.33
2024-04-06T03:24:05.440Z,974.25
2024-04-06T03:25:05.428Z,974.25
2024-04-06T03:26:05.415Z,974.31
2024-04-06T03:27:05.405Z,974.30
2024-04-06T03:28:05.391Z,974.29
2024-04-06T03:29:05.386Z,974.28
2024-04-06T03:30:05.365Z,974.34
2024-04-06T03:31:05.355Z,974.36
2024-04-06T03:32:05.342Z,974.36
2024-04-06T03:33:05.332Z,974.32
2024-04-06T03:34:05.328Z,974.30
2024-04-06T03:35:05.309Z,974.28
2024-04-06T03:37:05.279Z,974.22
2024-04-06T03:38:05.274Z,974.19
2024-04-06T03:39:05.260Z,974.20
2024-04-06T03:40:05.248Z,974.26
2024-04-06T03:42:05.225Z,974.21
2024-04-06T03:43:05.210Z,974.22
2024-04-06T03:44:05.203Z,974.26
2024-04-06T03:45:05.202Z,974.19
2024-04-06T03:46:05.172Z,974.20
2024-04-06T03:47:05.163Z,974.20
2024-04-06T03:48:05.199Z,974.20
2024-04-06T03:49:05.137Z,974.18
2024-04-06T03:50:05.124Z,974.20
2024-04-06T03:51:05.115Z,974.22
2024-04-06T03:52:05.099Z,974.22
2024-04-06T03:54:05.077Z,974.18
2024-04-06T03:55:05.062Z,974.25
2024-04-06T03:56:05.054Z,974.27
2024-04-06T03:57:05.049Z,974.26
2024-04-06T03:58:05.033Z,974.24
2024-04-06T03:59:05.015Z,974.28
2024-04-06T04:00:05.012Z,974.23
2024-04-06T04:01:05.002Z,974.16
2024-04-06T04:02:04.981Z,974.16
2024-04-06T04:03:04.964Z,974.19
2024-04-06T04:04:04.955Z,974.20
2024-04-06T04:05:04.942Z,974.17
2024-04-06T04:06:04.934Z,974.14
2024-04-06T04:07:04.917Z,974.23
2024-04-06T04:08:04.905Z,974.25
2024-04-06T04:09:04.897Z,974.25
2024-04-06T04:10:04.881Z,974.27
2024-04-06T04:11:04.868Z,974.22
2024-04-06T04:12:04.856Z,974.24
2024-04-06T04:13:04.844Z,974.30
2024-04-06T04:14:04.831Z,974.27
2024-04-06T04:15:04.816Z,974.25
2024-04-06T04:16:04.811Z,974.28
2024-04-06T04:17:04.800Z,974.30
2024-04-06T04:18:04.783Z,974.29
2024-04-06T04:19:04.775Z,974.30
2024-04-06T04:20:04.766Z,974.30
2024-04-06T04:21:04.743Z,974.30
2024-04-06T04:22:04.735Z,974.32
2024-04-06T04:23:04.718Z,974.33
2024-04-06T04:24:04.731Z,974.32
2024-04-06T04:25:04.694Z,974.36
2024-04-06T04:26:04.682Z,974.37
2024-04-06T04:27:04.676Z,974.39
2024-04-06T04:28:04.668Z,974.39
2024-04-06T04:29:04.646Z,974.43
2024-04-06T04:30:04.634Z,974.39
2024-04-06T04:31:04.625Z,974.45
2024-04-06T04:32:04.620Z,974.50
2024-04-06T04:33:04.605Z,974.46
2024-04-06T04:34:04.582Z,974.41
2024-04-06T04:35:04.574Z,974.44
2024-04-06T04:36:04.561Z,974.48
2024-04-06T04:37:04.548Z,974.47
2024-04-06T04:38:04.537Z,974.47
2024-04-06T04:39:04.532Z,974.51
2024-04-06T04:40:04.517Z,974.51
2024-04-06T04:41:04.497Z,974.53
2024-04-06T04:42:04.488Z,974.54
2024-04-06T04:43:04.472Z,974.58
2024-04-06T04:44:15.401Z,974.57
2024-04-06T04:45:04.508Z,974.56
2024-04-06T04:46:04.440Z,974.60
2024-04-06T04:47:04.434Z,974.63
2024-04-06T04:48:04.413Z,974.59
2024-04-06T04:49:04.407Z,974.58
2024-04-06T04:50:04.394Z,974.58
2024-04-06T04:51:04.376Z,974.58
2024-04-06T04:52:04.362Z,974.62
2024-04-06T04:53:04.356Z,974.58
2024-04-06T04:54:04.340Z,974.60
2024-04-06T04:55:04.335Z,974.58
2024-04-06T04:56:04.313Z,974.59
2024-04-06T04:57:04.303Z,974.61
2024-04-06T04:58:04.350Z,974.63
2024-04-06T04:59:04.271Z,974.62
2024-04-06T05:00:04.266Z,974.67
2024-04-06T05:01:04.267Z,974.66
2024-04-06T05:02:04.245Z,974.67
2024-04-06T05:03:04.223Z,974.70
2024-04-06T05:04:04.227Z,974.69
2024-04-06T05:05:04.209Z,974.70
2024-04-06T05:06:04.185Z,974.72
2024-04-06T05:07:04.194Z,974.70
2024-04-06T05:08:04.163Z,974.73
2024-04-06T05:09:04.151Z,974.72
2024-04-06T05:10:04.146Z,974.71
2024-04-06T05:11:04.209Z,974.74
2024-04-06T05:12:04.114Z,974.71
2024-04-06T05:13:04.105Z,974.73
2024-04-06T05:14:04.094Z,974.75
2024-04-06T05:15:04.080Z,974.74
2024-04-06T05:17:04.059Z,974.78
2024-04-06T05:18:04.036Z,974.84
2024-04-06T05:19:04.026Z,974.82
2024-04-06T05:20:04.013Z,974.79
2024-04-06T05:21:04.021Z,974.87
2024-04-06T05:22:03.987Z,974.90
2024-04-06T05:23:03.978Z,974.88
2024-04-06T05:24:03.979Z,974.92
2024-04-06T05:25:03.943Z,974.89
2024-04-06T05:26:03.937Z,974.90
2024-04-06T05:27:03.946Z,974.96
2024-04-06T05:28:03.910Z,974.94
2024-04-06T05:29:03.893Z,974.95
2024-04-06T05:30:03.911Z,974.98
2024-04-06T05:31:03.879Z,974.98
2024-04-06T05:32:03.864Z,975.01
2024-04-06T05:33:03.847Z,975.04
2024-04-06T05:34:03.845Z,975.05
2024-04-06T05:35:03.824Z,975.04
2024-04-06T05:36:03.834Z,975.01
2024-04-06T05:37:03.811Z,975.03
2024-04-06T05:38:03.792Z,975.02
2024-04-06T05:39:03.781Z,975.08
2024-04-06T05:40:03.760Z,975.06
2024-04-06T05:41:03.749Z,975.08
2024-04-06T05:42:03.757Z,975.05
2024-04-06T05:43:03.721Z,975.04
2024-04-06T05:44:07.524Z,975.04
2024-04-06T05:45:03.696Z,975.06
2024-04-06T05:46:03.697Z,975.03
2024-04-06T05:47:03.669Z,975.02
2024-04-06T05:48:03.677Z,975.07
2024-04-06T05:49:03.648Z,975.07
2024-04-06T05:50:03.650Z,975.11
2024-04-06T05:51:03.650Z,975.11
2024-04-06T05:52:03.613Z,975.13
2024-04-06T05:53:03.610Z,975.07
2024-04-06T05:54:03.589Z,975.10
2024-04-06T05:55:03.625Z,975.09
2024-04-06T05:56:03.568Z,975.06
2024-04-06T05:57:03.551Z,975.04
2024-04-06T05:58:03.540Z,975.07
2024-04-06T05:59:03.522Z,975.06
2024-04-06T06:00:03.517Z,975.03
2024-04-06T06:01:03.500Z,975.03
2024-04-06T06:02:03.495Z,975.06
2024-04-06T06:03:03.478Z,975.07
2024-04-06T06:04:03.476Z,975.09
2024-04-06T06:05:03.510Z,975.08
2024-04-06T06:06:03.447Z,975.07
2024-04-06T06:07:03.439Z,975.09
2024-04-06T06:08:03.425Z,975.13
2024-04-06T06:09:03.438Z,975.10
2024-04-06T06:10:03.401Z,975.09
2024-04-06T06:11:03.402Z,975.13
2024-04-06T06:12:03.398Z,975.10
2024-04-06T06:13:03.364Z,975.12
2024-04-06T06:14:03.362Z,975.11
2024-04-06T06:15:03.346Z,975.10
2024-04-06T06:16:03.340Z,975.08
2024-04-06T06:17:03.333Z,975.11
2024-04-06T06:18:03.689Z,975.11
2024-04-06T06:19:03.308Z,975.07
2024-04-06T06:20:03.292Z,975.11
2024-04-06T06:21:03.276Z,975.15
2024-04-06T06:22:03.271Z,975.16
2024-04-06T06:23:03.279Z,975.16
2024-04-06T06:24:03.249Z,975.14
2024-04-06T06:25:03.288Z,975.11
2024-04-06T06:26:03.226Z,975.09
2024-04-06T06:27:03.215Z,975.15
2024-04-06T06:28:03.408Z,975.16
2024-04-06T06:29:03.192Z,975.09
2024-04-06T06:30:03.234Z,975.13
2024-04-06T06:31:03.174Z,975.14
2024-04-06T06:32:03.166Z,975.19
2024-04-06T06:33:03.156Z,975.19
2024-04-06T06:34:03.145Z,975.21
2024-04-06T06:35:03.131Z,975.22
2024-04-06T06:38:03.117Z,975.23
2024-04-06T06:41:03.085Z,975.23
2024-04-06T06:42:03.059Z,975.19
2024-04-06T06:43:03.049Z,975.19
2024-04-06T06:44:03.044Z,975.14
2024-04-06T06:45:03.030Z,975.15
2024-04-06T06:46:03.028Z,975.18
2024-04-06T06:47:03.007Z,975.13
2024-04-06T06:48:02.999Z,975.16
2024-04-06T06:49:02.990Z,975.15
2024-04-06T06:50:02.998Z,975.13
2024-04-06T06:51:02.967Z,975.12
2024-04-06T06:52:02.964Z,975.11
2024-04-06T06:53:02.956Z,975.14
2024-04-06T06:54:02.945Z,975.15
2024-04-06T06:55:02.933Z,975.09
2024-04-06T06:56:02.930Z,975.07
2024-04-06T06:57:02.962Z,975.12
2024-04-06T06:58:02.927Z,975.06
2024-04-06T06:59:02.891Z,975.07
2024-04-06T07:01:02.878Z,975.10
2024-04-06T07:02:02.868Z,975.06
2024-04-06T07:03:02.902Z,975.14
2024-04-06T07:04:02.843Z,975.09
2024-04-06T07:05:02.829Z,975.12
2024-04-06T07:06:02.828Z,975.13
2024-04-06T07:07:07.432Z,975.11
2024-04-06T07:08:02.808Z,975.10
2024-04-06T07:09:03.130Z,975.08
2024-04-06T07:10:02.788Z,975.10
2024-04-06T07:11:02.821Z,975.10
2024-04-06T07:12:02.773Z,975.05
2024-04-06T07:13:02.773Z,975.07
2024-04-06T07:14:02.757Z,975.05
2024-04-06T07:15:02.741Z,975.05
2024-04-06T07:16:02.731Z,975.07
2024-04-06T07:17:02.727Z,975.03
2024-04-06T07:18:02.738Z,975.07
2024-04-06T07:19:02.711Z,975.11
2024-04-06T07:20:02.711Z,975.10
2024-04-06T07:21:02.695Z,975.11
2024-04-06T07:22:02.687Z,975.11
2024-04-06T07:23:02.868Z,975.12
2024-04-06T07:25:02.690Z,975.15
2024-04-06T07:26:02.637Z,975.12
2024-04-06T07:27:02.650Z,975.12
2024-04-06T07:28:02.628Z,975.12
2024-04-06T07:29:02.721Z,975.16
2024-04-06T07:30:02.602Z,975.13
2024-04-06T07:31:02.596Z,975.16
2024-04-06T07:32:02.591Z,975.16
2024-04-06T07:33:02.583Z,975.20
2024-04-06T07:34:02.565Z,975.17
2024-04-06T07:35:02.563Z,975.21
2024-04-06T07:36:02.567Z,975.21
2024-04-06T07:37:02.546Z,975.19
2024-04-06T07:38:02.537Z,975.22
2024-04-06T07:40:02.559Z,975.24
2024-04-06T07:41:02.511Z,975.23
2024-04-06T07:42:02.503Z,975.23
2024-04-06T07:43:02.497Z,975.24
2024-04-06T07:44:02.524Z,975.22
2024-04-06T07:45:02.485Z,975.17
2024-04-06T07:46:02.665Z,975.16
2024-04-06T07:47:02.464Z,975.17
2024-04-06T07:48:02.449Z,975.20
2024-04-06T07:49:02.452Z,975.20
2024-04-06T07:50:02.485Z,975.20
2024-04-06T07:51:02.430Z,975.17
2024-04-06T07:52:02.425Z,975.11
2024-04-06T07:53:02.419Z,975.16
2024-04-06T07:54:02.404Z,975.14
2024-04-06T07:55:02.404Z,975.14
2024-04-06T07:56:02.441Z,975.19
2024-04-06T07:57:02.408Z,975.17
2024-04-06T07:58:02.376Z,975.17
2024-04-06T07:59:02.363Z,975.18
2024-04-06T08:00:02.356Z,975.21
2024-04-06T08:01:02.420Z,975.24
2024-04-06T08:02:02.359Z,975.21
2024-04-06T08:03:02.331Z,975.23
2024-04-06T08:04:02.323Z,975.22
2024-04-06T08:05:02.331Z,975.20
2024-04-06T08:06:02.306Z,975.20
2024-04-06T08:07:04.540Z,975.16
2024-04-06T08:08:02.290Z,975.17
2024-04-06T08:09:02.290Z,975.17
2024-04-06T08:10:02.290Z,975.15
2024-04-06T08:11:02.275Z,975.14
2024-04-06T08:12:02.267Z,975.18
2024-04-06T08:13:02.254Z,975.17
2024-04-06T08:14:13.586Z,975.16
2024-04-06T08:15:02.235Z,975.18
2024-04-06T08:16:02.230Z,975.18
2024-04-06T08:17:02.226Z,975.18
2024-04-06T08:18:02.211Z,975.16
2024-04-06T08:19:02.202Z,975.16
2024-04-06T08:20:02.191Z,975.17
2024-04-06T08:21:02.200Z,975.18
2024-04-06T08:22:02.178Z,975.19
2024-04-06T08:23:02.171Z,975.17
2024-04-06T08:24:02.162Z,975.20
2024-04-06T08:25:02.151Z,975.16
2024-04-06T08:26:02.145Z,975.16
2024-04-06T08:27:02.140Z,975.16
2024-04-06T08:28:02.124Z,975.18
2024-04-06T08:29:02.133Z,975.19
2024-04-06T08:30:02.117Z,975.15
2024-04-06T08:31:02.107Z,975.13
2024-04-06T08:32:02.108Z,975.13
2024-04-06T08:33:02.915Z,975.14
2024-04-06T08:34:02.089Z,975.14
2024-04-06T08:35:02.075Z,975.18
2024-04-06T08:36:02.066Z,975.18
2024-04-06T08:37:02.062Z,975.16
2024-04-06T08:38:02.060Z,975.20
2024-04-06T08:39:02.049Z,975.23
2024-04-06T08:40:02.079Z,975.19
2024-04-06T08:41:02.033Z,975.16
2024-04-06T08:42:02.044Z,975.16
2024-04-06T08:43:02.017Z,975.17
2024-04-06T08:44:02.020Z,975.16
2024-04-06T08:45:02.008Z,975.14
2024-04-06T08:46:01.997Z,975.12
2024-04-06T08:47:01.994Z,975.16
2024-04-06T08:48:01.977Z,975.17
2024-04-06T08:49:01.983Z,975.20
2024-04-06T08:50:01.991Z,975.19
2024-04-06T08:51:01.961Z,975.17
2024-04-06T08:52:01.954Z,975.15
2024-04-06T08:53:01.948Z,975.20
2024-04-06T08:54:01.942Z,975.16
2024-04-06T08:55:01.935Z,975.20
2024-04-06T08:56:01.926Z,975.21
2024-04-06T08:57:01.931Z,975.18
2024-04-06T08:58:01.909Z,975.23
2024-04-06T08:59:01.905Z,975.26
2024-04-06T09:00:01.962Z,975.22
2024-04-06T09:01:01.914Z,975.21
2024-04-06T09:02:01.897Z,975.24
2024-04-06T09:03:01.881Z,975.23
2024-04-06T09:04:01.872Z,975.26
2024-04-06T09:05:01.892Z,975.24
2024-04-06T09:06:01.870Z,975.30
2024-04-06T09:07:01.855Z,975.27
2024-04-06T09:08:01.878Z,975.22
2024-04-06T09:09:01.846Z,975.27
2024-04-06T09:10:01.838Z,975.22
2024-04-06T09:11:01.854Z,975.23
2024-04-06T09:12:01.829Z,975.26
2024-04-06T09:13:01.822Z,975.17
2024-04-06T09:14:01.812Z,975.18
2024-04-06T09:15:01.810Z,975.15
2024-04-06T09:16:01.804Z,975.11
2024-04-06T09:17:01.792Z,975.05
2024-04-06T09:18:01.790Z,975.08
2024-04-06T09:19:01.784Z,975.10
2024-04-06T09:20:01.795Z,975.05
2024-04-06T09:21:01.799Z,975.12
2024-04-06T09:22:01.771Z,975.11
2024-04-06T09:23:01.783Z,975.11
2024-04-06T09:24:01.760Z,975.10
2024-04-06T09:25:01.752Z,975.08
2024-04-06T09:26:01.750Z,975.10
2024-04-06T09:27:01.746Z,975.12
2024-04-06T09:28:01.741Z,975.11
2024-04-06T09:29:01.722Z,975.07
2024-04-06T09:30:01.747Z,975.04
2024-04-06T09:31:01.721Z,975.05
2024-04-06T09:32:01.721Z,975.06
2024-04-06T09:33:01.711Z,975.07
2024-04-06T09:34:01.701Z,975.06
2024-04-06T09:35:01.692Z,975.08
2024-04-06T09:36:01.706Z,975.08
2024-04-06T09:37:01.700Z,975.07
2024-04-06T09:38:01.679Z,975.08
2024-04-06T09:39:01.701Z,975.07
2024-04-06T09:40:01.679Z,975.05
2024-04-06T09:41:01.674Z,975.03
2024-04-06T09:42:01.662Z,975.06
2024-04-06T09:43:01.661Z,975.00
2024-04-06T09:44:01.666Z,975.06
2024-04-06T09:45:01.636Z,975.04
2024-04-06T09:46:01.647Z,975.07
2024-04-06T09:47:01.637Z,975.01
2024-04-06T09:48:01.649Z,975.01
2024-04-06T09:49:01.626Z,974.99
2024-04-06T09:50:01.619Z,974.96
2024-04-06T09:51:01.615Z,974.99
2024-04-06T09:52:01.610Z,974.98
2024-04-06T09:53:01.627Z,974.97
2024-04-06T09:54:01.603Z,974.93
2024-04-06T09:55:01.602Z,974.92
2024-04-06T09:56:01.589Z,974.89
2024-04-06T09:57:01.580Z,974.93
2024-04-06T09:58:01.582Z,974.90
2024-04-06T09:59:01.574Z,974.93
2024-04-06T10:00:01.621Z,974.90
2024-04-06T10:01:01.559Z,974.92
2024-04-06T10:02:01.558Z,974.92
2024-04-06T10:03:01.556Z,974.94
2024-04-06T10:04:01.557Z,974.92
2024-04-06T10:05:01.744Z,974.96
2024-04-06T10:08:01.534Z,974.93
2024-04-06T10:09:01.539Z,974.88
2024-04-06T10:10:01.524Z,974.92
2024-04-06T10:11:01.557Z,974.89
2024-04-06T10:12:01.516Z,974.92
2024-04-06T10:13:01.520Z,974.89
2024-04-06T10:14:01.510Z,974.91
2024-04-06T10:15:01.504Z,974.90
2024-04-06T10:16:01.553Z,974.90
2024-04-06T10:17:01.492Z,974.95
2024-04-06T10:18:01.490Z,974.89
2024-04-06T10:19:01.485Z,974.92
2024-04-06T10:20:01.515Z,974.90
2024-04-06T10:21:01.475Z,974.93
2024-04-06T10:22:01.473Z,974.88
2024-04-06T10:23:01.468Z,974.87
2024-04-06T10:24:01.465Z,974.92
2024-04-06T10:25:01.481Z,974.93
2024-04-06T10:26:01.706Z,974.90
2024-04-06T10:27:01.451Z,974.92
2024-04-06T10:28:01.463Z,974.92
2024-04-06T10:29:01.442Z,975.00
2024-04-06T10:30:01.459Z,974.98
2024-04-06T10:31:01.431Z,974.96
2024-04-06T10:32:01.436Z,975.00
2024-04-06T10:33:01.431Z,974.97
2024-04-06T10:34:01.435Z,974.98
2024-04-06T10:35:01.416Z,974.96
2024-04-06T10:36:01.420Z,974.98
2024-04-06T10:37:02.015Z,974.96
2024-04-06T10:38:01.405Z,974.95
2024-04-06T10:39:01.400Z,974.95
2024-04-06T10:40:01.396Z,974.93
2024-04-06T10:41:01.406Z,974.94
2024-04-06T10:42:01.388Z,974.95
2024-04-06T10:43:03.786Z,974.94
2024-04-06T10:44:01.382Z,974.91
2024-04-06T10:45:01.406Z,974.86
2024-04-06T10:46:01.423Z,974.86
2024-04-06T10:47:01.370Z,974.86
2024-04-06T10:48:01.403Z,974.88
2024-04-06T10:49:02.954Z,974.84
2024-04-06T10:50:01.356Z,974.86
2024-04-06T10:51:01.359Z,974.84
2024-04-06T10:52:01.348Z,974.83
2024-04-06T10:53:01.341Z,974.84
2024-04-06T10:54:01.372Z,974.82
2024-04-06T10:55:01.358Z,974.85
2024-04-06T10:56:01.336Z,974.83
2024-04-06T10:57:01.346Z,974.79
2024-04-06T10:58:01.334Z,974.82
2024-04-06T10:59:01.320Z,974.83
2024-04-06T11:00:01.319Z,974.80
2024-04-06T11:01:01.313Z,974.80
2024-04-06T11:02:01.316Z,974.78
2024-04-06T11:03:01.309Z,974.75
2024-04-06T11:04:01.318Z,974.73
2024-04-06T11:05:01.299Z,974.70
2024-04-06T11:06:01.299Z,974.70
2024-04-06T11:07:01.304Z,974.72
2024-04-06T11:08:01.319Z,974.72
2024-04-06T11:09:01.293Z,974.69
2024-04-06T11:10:01.298Z,974.69
2024-04-06T11:11:01.293Z,974.70
2024-04-06T11:12:01.286Z,974.66
2024-04-06T11:13:01.318Z,974.64
2024-04-06T11:14:01.279Z,974.66
2024-04-06T11:15:01.262Z,974.67
2024-04-06T11:16:01.280Z,974.67
2024-04-06T11:17:01.298Z,974.61
2024-04-06T11:18:01.255Z,974.66
2024-04-06T11:19:01.246Z,974.66
2024-04-06T11:20:01.253Z,974.62
2024-04-06T11:21:01.251Z,974.61
2024-04-06T11:22:01.244Z,974.59
2024-04-06T11:23:01.257Z,974.60
2024-04-06T11:24:01.239Z,974.61
2024-04-06T11:25:01.231Z,974.61
2024-04-06T11:26:01.231Z,974.57
2024-04-06T11:27:01.238Z,974.60
2024-04-06T11:28:01.224Z,974.60
2024-04-06T11:29:01.240Z,974.59
2024-04-06T11:30:04.320Z,974.56
2024-04-06T11:31:01.215Z,974.55
2024-04-06T11:32:01.220Z,974.54
2024-04-06T11:33:01.207Z,974.55
2024-04-06T11:34:01.218Z,974.53
2024-04-06T11:35:01.208Z,974.51
2024-04-06T11:36:01.199Z,974.50
2024-04-06T11:37:01.195Z,974.51
2024-04-06T11:38:01.200Z,974.49
2024-04-06T11:39:01.398Z,974.43
2024-04-06T11:40:01.188Z,974.42
2024-04-06T11:41:01.186Z,974.42
2024-04-06T11:42:01.183Z,974.45
2024-04-06T11:43:01.178Z,974.39
2024-04-06T11:44:01.185Z,974.37
2024-04-06T11:45:01.182Z,974.33
2024-04-06T11:46:01.180Z,974.29
2024-04-06T11:48:01.165Z,974.20
2024-04-06T11:49:01.175Z,974.23
2024-04-06T11:50:01.183Z,974.20
2024-04-06T11:51:01.173Z,974.23
2024-04-06T11:52:01.169Z,974.29
2024-04-06T11:53:01.158Z,974.31
2024-04-06T11:54:01.189Z,974.30
2024-04-06T11:55:01.163Z,974.27
2024-04-06T11:56:01.146Z,974.20
2024-04-06T11:57:01.198Z,974.21
2024-04-06T11:58:01.144Z,974.17
2024-04-06T11:59:01.160Z,974.15
2024-04-06T12:00:01.135Z,974.13
2024-04-06T12:01:01.160Z,974.17
2024-04-06T12:02:01.159Z,974.12
2024-04-06T12:03:01.134Z,974.15
2024-04-06T12:04:01.137Z,974.11
2024-04-06T12:05:01.133Z,974.09
2024-04-06T12:06:01.120Z,974.14
2024-04-06T12:07:01.181Z,974.12
2024-04-06T12:08:01.123Z,974.14
2024-04-06T12:09:01.124Z,974.08
2024-04-06T12:10:01.113Z,974.05
2024-04-06T12:11:01.116Z,974.08
2024-04-06T12:12:01.114Z,974.06
2024-04-06T12:13:01.126Z,974.11
2024-04-06T12:14:01.112Z,974.06
2024-04-06T12:15:01.110Z,974.08
2024-04-06T12:16:01.112Z,974.02
2024-04-06T12:17:01.124Z,974.08
2024-04-06T12:18:01.105Z,974.05
2024-04-06T12:19:01.351Z,974.07
2024-04-06T12:20:01.113Z,974.00
2024-04-06T12:21:01.096Z,974.06
2024-04-06T12:22:01.107Z,974.02
2024-04-06T12:23:01.095Z,974.06
2024-04-06T12:24:01.091Z,974.06
2024-04-06T12:25:01.085Z,974.02
2024-04-06T12:26:01.123Z,974.02
2024-04-06T12:27:01.090Z,973.98
2024-04-06T12:28:01.087Z,973.98
2024-04-06T12:29:01.088Z,973.92
2024-04-06T12:30:01.078Z,973.98
2024-04-06T12:31:01.078Z,973.96
2024-04-06T12:32:01.072Z,973.89
2024-04-06T12:33:01.087Z,973.83
2024-04-06T12:34:01.071Z,973.86
2024-04-06T12:35:01.092Z,973.88
2024-04-06T12:36:01.086Z,973.85
2024-04-06T12:37:01.071Z,973.85
2024-04-06T12:38:01.061Z,973.82
2024-04-06T12:39:01.078Z,973.81
2024-04-06T12:40:01.065Z,973.81
2024-04-06T12:41:01.063Z,973.80
2024-04-06T12:42:01.063Z,973.82
2024-04-06T12:43:01.058Z,973.83